sensor_id;sensor_type;location;lat;lon;timestamp;temperature;humidity
23869;DHT22;12115;47.128;15.422;2023-02-19T00:01:35;5.50;99.90
23869;DHT22;12115;47.128;15.422;2023-02-19T00:04:06;5.60;99.90
23869;DHT22;12115;47.128;15.422;2023-02-19T00:06:34;5.50;99.90
23869;DHT22;12115;47.128;15.422;2023-02-19T00:09:02;5.40;99.90
23869;DHT22;12115;47.128;15.422;2023-02-19T00:11:30;5.40;99.90
23869;DHT22;12115;47.128;15.422;2023-02-19T00:13:58;5.40;99.90
23869;DHT22;12115;47.128;15.422;2023-02-19T00:18:53;5.40;99.90
23869;DHT22;12115;47.128;15.422;2023-02-19T00:21:21;5.40;99.90
23869;DHT22;12115;47.128;15.422;2023-02-19T00:23:49;5.30;99.90
23869;DHT22;12115;47.128;15.422;2023-02-19T00:26:16;5.30;99.90
23869;DHT22;12115;47.128;15.422;2023-02-19T00:28:47;5.30;99.90
23869;DHT22;12115;47.128;15.422;2023-02-19T00:33:44;5.30;99.90
23869;DHT22;12115;47.128;15.422;2023-02-19T00:36:12;5.30;99.90
23869;DHT22;12115;47.128;15.422;2023-02-19T00:38:40;5.30;99.90
23869;DHT22;12115;47.128;15.422;2023-02-19T00:41:08;5.20;99.90
23869;DHT22;12115;47.128;15.422;2023-02-19T00:43:54;5.20;99.90
23869;DHT22;12115;47.128;15.422;2023-02-19T00:46:23;5.20;99.90
23869;DHT22;12115;47.128;15.422;2023-02-19T00:48:50;5.30;99.90
23869;DHT22;12115;47.128;15.422;2023-02-19T00:51:21;5.20;99.90
23869;DHT22;12115;47.128;15.422;2023-02-19T00:53:48;5.20;99.90
23869;DHT22;12115;47.128;15.422;2023-02-19T00:56:16;5.10;99.90
23869;DHT22;12115;47.128;15.422;2023-02-19T00:58:43;5.10;99.90
23869;DHT22;12115;47.128;15.422;2023-02-19T01:01:10;5.10;99.90
23869;DHT22;12115;47.128;15.422;2023-02-19T01:03:38;5.20;99.90
23869;DHT22;12115;47.128;15.422;2023-02-19T01:06:06;5.20;99.90
23869;DHT22;12115;47.128;15.422;2023-02-19T01:08:41;5.10;99.90
23869;DHT22;12115;47.128;15.422;2023-02-19T01:11:08;5.10;99.90
23869;DHT22;12115;47.128;15.422;2023-02-19T01:13:37;5.00;99.90
23869;DHT22;12115;47.128;15.422;2023-02-19T01:16:14;5.10;99.90
23869;DHT22;12115;47.128;15.422;2023-02-19T01:18:42;4.90;99.90
23869;DHT22;12115;47.128;15.422;2023-02-19T01:21:15;4.90;99.90
23869;DHT22;12115;47.128;15.422;2023-02-19T01:23:42;4.80;99.90
23869;DHT22;12115;47.128;15.422;2023-02-19T01:26:17;4.80;99.90
23869;DHT22;12115;47.128;15.422;2023-02-19T01:28:45;4.80;99.90
23869;DHT22;12115;47.128;15.422;2023-02-19T01:31:15;4.80;99.90
23869;DHT22;12115;47.128;15.422;2023-02-19T01:33:44;4.80;99.90
23869;DHT22;12115;47.128;15.422;2023-02-19T01:36:12;4.80;99.90
23869;DHT22;12115;47.128;15.422;2023-02-19T01:38:39;4.80;99.90
23869;DHT22;12115;47.128;15.422;2023-02-19T01:41:07;4.70;99.90
23869;DHT22;12115;47.128;15.422;2023-02-19T01:46:26;4.70;99.90
23869;DHT22;12115;47.128;15.422;2023-02-19T01:48:53;4.70;99.90
23869;DHT22;12115;47.128;15.422;2023-02-19T01:51:22;4.70;99.90
23869;DHT22;12115;47.128;15.422;2023-02-19T01:53:51;4.60;99.90
23869;DHT22;12115;47.128;15.422;2023-02-19T01:56:19;4.70;99.90
23869;DHT22;12115;47.128;15.422;2023-02-19T01:58:47;4.70;99.90
23869;DHT22;12115;47.128;15.422;2023-02-19T02:01:15;4.70;99.90
23869;DHT22;12115;47.128;15.422;2023-02-19T02:03:42;4.60;99.90
23869;DHT22;12115;47.128;15.422;2023-02-19T02:06:13;4.60;99.90
23869;DHT22;12115;47.128;15.422;2023-02-19T02:08:42;4.60;99.90
23869;DHT22;12115;47.128;15.422;2023-02-19T02:11:28;4.70;99.90
23869;DHT22;12115;47.128;15.422;2023-02-19T02:13:56;4.70;99.90
23869;DHT22;12115;47.128;15.422;2023-02-19T02:19:05;4.70;99.90
23869;DHT22;12115;47.128;15.422;2023-02-19T02:24:27;4.70;99.90
23869;DHT22;12115;47.128;15.422;2023-02-19T02:32:25;4.60;99.90
23869;DHT22;12115;47.128;15.422;2023-02-19T02:34:55;4.60;99.90
23869;DHT22;12115;47.128;15.422;2023-02-19T02:37:24;4.60;99.90
23869;DHT22;12115;47.128;15.422;2023-02-19T02:39:53;4.70;99.90
23869;DHT22;12115;47.128;15.422;2023-02-19T02:42:21;4.60;99.90
23869;DHT22;12115;47.128;15.422;2023-02-19T02:48:23;4.70;99.90
23869;DHT22;12115;47.128;15.422;2023-02-19T02:53:25;4.60;99.90
23869;DHT22;12115;47.128;15.422;2023-02-19T02:56:12;4.60;99.90
23869;DHT22;12115;47.128;15.422;2023-02-19T02:58:41;4.60;99.90
23869;DHT22;12115;47.128;15.422;2023-02-19T03:04:24;4.60;99.90
23869;DHT22;12115;47.128;15.422;2023-02-19T03:06:54;4.60;99.90
23869;DHT22;12115;47.128;15.422;2023-02-19T03:09:29;4.60;99.90
23869;DHT22;12115;47.128;15.422;2023-02-19T03:11:58;4.60;99.90
23869;DHT22;12115;47.128;15.422;2023-02-19T03:15:07;4.60;99.90
23869;DHT22;12115;47.128;15.422;2023-02-19T03:17:55;4.60;99.90
23869;DHT22;12115;47.128;15.422;2023-02-19T03:20:45;4.60;99.90
23869;DHT22;12115;47.128;15.422;2023-02-19T03:23:13;4.50;99.90
23869;DHT22;12115;47.128;15.422;2023-02-19T03:25:42;4.50;99.90
23869;DHT22;12115;47.128;15.422;2023-02-19T03:28:38;4.50;99.90
23869;DHT22;12115;47.128;15.422;2023-02-19T03:31:26;4.60;99.90
23869;DHT22;12115;47.128;15.422;2023-02-19T03:33:59;4.50;99.90
23869;DHT22;12115;47.128;15.422;2023-02-19T03:36:29;4.50;99.90
23869;DHT22;12115;47.128;15.422;2023-02-19T03:39:01;4.40;99.90
23869;DHT22;12115;47.128;15.422;2023-02-19T03:41:40;4.40;99.90
23869;DHT22;12115;47.128;15.422;2023-02-19T03:46:45;4.40;99.90
23869;DHT22;12115;47.128;15.422;2023-02-19T03:49:59;4.40;99.90
23869;DHT22;12115;47.128;15.422;2023-02-19T03:52:06;4.40;99.90
23869;DHT22;12115;47.128;15.422;2023-02-19T03:54:38;4.40;99.90
23869;DHT22;12115;47.128;15.422;2023-02-19T04:02:32;4.40;99.90
23869;DHT22;12115;47.128;15.422;2023-02-19T04:05:03;4.30;99.90
23869;DHT22;12115;47.128;15.422;2023-02-19T04:07:34;4.30;99.90
23869;DHT22;12115;47.128;15.422;2023-02-19T04:10:03;4.30;99.90
23869;DHT22;12115;47.128;15.422;2023-02-19T04:12:32;4.30;99.90
23869;DHT22;12115;47.128;15.422;2023-02-19T04:15:01;4.10;99.90
23869;DHT22;12115;47.128;15.422;2023-02-19T04:17:34;4.20;99.90
23869;DHT22;12115;47.128;15.422;2023-02-19T04:20:02;4.20;99.90
23869;DHT22;12115;47.128;15.422;2023-02-19T04:22:31;4.30;99.90
23869;DHT22;12115;47.128;15.422;2023-02-19T04:24:59;4.30;99.90
23869;DHT22;12115;47.128;15.422;2023-02-19T04:27:26;4.20;99.90
23869;DHT22;12115;47.128;15.422;2023-02-19T04:29:54;4.20;99.90
23869;DHT22;12115;47.128;15.422;2023-02-19T04:32:21;4.20;99.90
23869;DHT22;12115;47.128;15.422;2023-02-19T04:34:48;4.20;99.90
23869;DHT22;12115;47.128;15.422;2023-02-19T04:37:15;4.20;99.90
23869;DHT22;12115;47.128;15.422;2023-02-19T04:39:43;4.20;99.90
23869;DHT22;12115;47.128;15.422;2023-02-19T04:42:10;4.20;99.90
23869;DHT22;12115;47.128;15.422;2023-02-19T04:44:37;4.10;99.90
23869;DHT22;12115;47.128;15.422;2023-02-19T04:47:04;4.10;99.90
23869;DHT22;12115;47.128;15.422;2023-02-19T04:49:32;4.10;99.90
23869;DHT22;12115;47.128;15.422;2023-02-19T04:51:59;4.10;99.90
23869;DHT22;12115;47.128;15.422;2023-02-19T04:54:26;4.10;99.90
23869;DHT22;12115;47.128;15.422;2023-02-19T04:56:53;4.10;99.90
23869;DHT22;12115;47.128;15.422;2023-02-19T04:59:20;4.10;99.90
23869;DHT22;12115;47.128;15.422;2023-02-19T05:01:47;4.10;99.90
23869;DHT22;12115;47.128;15.422;2023-02-19T05:04:14;4.10;99.90
23869;DHT22;12115;47.128;15.422;2023-02-19T05:06:42;4.10;99.90
23869;DHT22;12115;47.128;15.422;2023-02-19T05:09:09;4.00;99.90
23869;DHT22;12115;47.128;15.422;2023-02-19T05:11:36;4.10;99.90
23869;DHT22;12115;47.128;15.422;2023-02-19T05:14:03;4.10;99.90
23869;DHT22;12115;47.128;15.422;2023-02-19T05:16:30;4.10;99.90
23869;DHT22;12115;47.128;15.422;2023-02-19T05:18:59;4.10;99.90
23869;DHT22;12115;47.128;15.422;2023-02-19T05:21:26;4.00;99.90
23869;DHT22;12115;47.128;15.422;2023-02-19T05:23:53;4.10;99.90
23869;DHT22;12115;47.128;15.422;2023-02-19T05:26:21;4.10;99.90
23869;DHT22;12115;47.128;15.422;2023-02-19T05:28:49;4.20;99.90
23869;DHT22;12115;47.128;15.422;2023-02-19T05:31:17;4.10;99.90
23869;DHT22;12115;47.128;15.422;2023-02-19T05:33:45;4.20;99.90
23869;DHT22;12115;47.128;15.422;2023-02-19T05:36:17;4.20;99.90
23869;DHT22;12115;47.128;15.422;2023-02-19T05:38:45;4.20;99.90
23869;DHT22;12115;47.128;15.422;2023-02-19T05:41:13;4.20;99.90
23869;DHT22;12115;47.128;15.422;2023-02-19T05:43:41;4.30;99.90
23869;DHT22;12115;47.128;15.422;2023-02-19T05:46:11;4.30;99.90
23869;DHT22;12115;47.128;15.422;2023-02-19T05:48:38;4.30;99.90
23869;DHT22;12115;47.128;15.422;2023-02-19T05:51:06;4.30;99.90
23869;DHT22;12115;47.128;15.422;2023-02-19T05:53:34;4.20;99.90
23869;DHT22;12115;47.128;15.422;2023-02-19T05:56:01;4.30;99.90
23869;DHT22;12115;47.128;15.422;2023-02-19T05:58:29;4.30;99.90
23869;DHT22;12115;47.128;15.422;2023-02-19T06:00:56;4.30;99.90
23869;DHT22;12115;47.128;15.422;2023-02-19T06:03:23;4.30;99.90
23869;DHT22;12115;47.128;15.422;2023-02-19T06:05:50;4.40;99.90
23869;DHT22;12115;47.128;15.422;2023-02-19T06:08:17;4.30;99.90
23869;DHT22;12115;47.128;15.422;2023-02-19T06:10:46;4.30;99.90
23869;DHT22;12115;47.128;15.422;2023-02-19T06:13:13;4.40;99.90
23869;DHT22;12115;47.128;15.422;2023-02-19T06:15:43;4.40;99.90
23869;DHT22;12115;47.128;15.422;2023-02-19T06:18:10;4.40;99.90
23869;DHT22;12115;47.128;15.422;2023-02-19T06:20:37;4.40;99.90
23869;DHT22;12115;47.128;15.422;2023-02-19T06:23:04;4.40;99.90
23869;DHT22;12115;47.128;15.422;2023-02-19T06:25:32;4.50;99.90
23869;DHT22;12115;47.128;15.422;2023-02-19T06:27:59;4.50;99.90
23869;DHT22;12115;47.128;15.422;2023-02-19T06:30:26;4.50;99.90
23869;DHT22;12115;47.128;15.422;2023-02-19T06:32:53;4.50;99.90
23869;DHT22;12115;47.128;15.422;2023-02-19T06:35:20;4.50;99.90
23869;DHT22;12115;47.128;15.422;2023-02-19T06:37:48;4.50;99.90
23869;DHT22;12115;47.128;15.422;2023-02-19T06:40:15;4.50;99.90
23869;DHT22;12115;47.128;15.422;2023-02-19T06:42:42;4.50;99.90
23869;DHT22;12115;47.128;15.422;2023-02-19T06:45:10;4.60;99.90
23869;DHT22;12115;47.128;15.422;2023-02-19T06:47:37;4.60;99.90
23869;DHT22;12115;47.128;15.422;2023-02-19T06:50:04;4.60;99.90
23869;DHT22;12115;47.128;15.422;2023-02-19T06:52:31;4.70;99.90
23869;DHT22;12115;47.128;15.422;2023-02-19T06:54:58;4.70;99.90
23869;DHT22;12115;47.128;15.422;2023-02-19T06:57:25;4.70;99.90
23869;DHT22;12115;47.128;15.422;2023-02-19T06:59:52;4.70;99.90
23869;DHT22;12115;47.128;15.422;2023-02-19T07:02:20;4.80;99.90
23869;DHT22;12115;47.128;15.422;2023-02-19T07:04:48;4.80;99.90
23869;DHT22;12115;47.128;15.422;2023-02-19T07:07:15;4.90;99.90
23869;DHT22;12115;47.128;15.422;2023-02-19T07:09:42;4.90;99.90
23869;DHT22;12115;47.128;15.422;2023-02-19T07:12:09;4.90;99.90
23869;DHT22;12115;47.128;15.422;2023-02-19T07:14:37;5.00;99.90
23869;DHT22;12115;47.128;15.422;2023-02-19T07:17:04;5.00;99.90
23869;DHT22;12115;47.128;15.422;2023-02-19T07:19:31;5.10;99.90
23869;DHT22;12115;47.128;15.422;2023-02-19T07:21:58;5.10;99.90
23869;DHT22;12115;47.128;15.422;2023-02-19T07:24:26;5.10;99.90
23869;DHT22;12115;47.128;15.422;2023-02-19T07:26:53;5.20;99.90
23869;DHT22;12115;47.128;15.422;2023-02-19T07:29:21;5.20;99.90
23869;DHT22;12115;47.128;15.422;2023-02-19T07:31:48;5.20;99.90
23869;DHT22;12115;47.128;15.422;2023-02-19T07:34:15;5.20;99.90
23869;DHT22;12115;47.128;15.422;2023-02-19T07:36:43;5.30;99.90
23869;DHT22;12115;47.128;15.422;2023-02-19T07:39:10;5.30;99.90
23869;DHT22;12115;47.128;15.422;2023-02-19T07:41:38;5.40;99.90
23869;DHT22;12115;47.128;15.422;2023-02-19T07:44:06;5.30;99.90
23869;DHT22;12115;47.128;15.422;2023-02-19T07:46:33;5.40;99.90
23869;DHT22;12115;47.128;15.422;2023-02-19T07:49:00;5.50;99.90
23869;DHT22;12115;47.128;15.422;2023-02-19T07:51:29;5.50;99.90
23869;DHT22;12115;47.128;15.422;2023-02-19T07:53:57;5.60;99.90
23869;DHT22;12115;47.128;15.422;2023-02-19T07:56:24;5.70;99.90
23869;DHT22;12115;47.128;15.422;2023-02-19T07:58:51;5.80;99.90
23869;DHT22;12115;47.128;15.422;2023-02-19T08:01:20;5.80;99.90
23869;DHT22;12115;47.128;15.422;2023-02-19T08:04:11;5.90;99.90
23869;DHT22;12115;47.128;15.422;2023-02-19T08:06:38;5.90;99.90
23869;DHT22;12115;47.128;15.422;2023-02-19T08:09:06;6.00;99.90
23869;DHT22;12115;47.128;15.422;2023-02-19T08:11:33;6.10;99.90
23869;DHT22;12115;47.128;15.422;2023-02-19T08:14:22;6.10;99.90
23869;DHT22;12115;47.128;15.422;2023-02-19T08:16:50;6.20;99.90
23869;DHT22;12115;47.128;15.422;2023-02-19T08:19:18;6.30;99.90
23869;DHT22;12115;47.128;15.422;2023-02-19T08:21:45;6.30;99.90
23869;DHT22;12115;47.128;15.422;2023-02-19T08:24:12;6.40;99.90
23869;DHT22;12115;47.128;15.422;2023-02-19T08:26:40;6.50;99.90
23869;DHT22;12115;47.128;15.422;2023-02-19T08:29:07;6.60;99.90
23869;DHT22;12115;47.128;15.422;2023-02-19T08:31:34;6.80;99.90
23869;DHT22;12115;47.128;15.422;2023-02-19T08:34:01;6.90;99.90
23869;DHT22;12115;47.128;15.422;2023-02-19T08:36:29;7.00;99.90
23869;DHT22;12115;47.128;15.422;2023-02-19T08:38:56;7.10;99.90
23869;DHT22;12115;47.128;15.422;2023-02-19T08:41:23;7.20;99.90
23869;DHT22;12115;47.128;15.422;2023-02-19T08:43:50;7.40;99.90
23869;DHT22;12115;47.128;15.422;2023-02-19T08:46:17;7.60;99.90
23869;DHT22;12115;47.128;15.422;2023-02-19T08:48:45;7.90;99.90
23869;DHT22;12115;47.128;15.422;2023-02-19T08:51:12;8.40;99.90
23869;DHT22;12115;47.128;15.422;2023-02-19T08:53:40;9.00;99.90
23869;DHT22;12115;47.128;15.422;2023-02-19T08:56:11;9.60;99.90
23869;DHT22;12115;47.128;15.422;2023-02-19T08:58:39;10.10;99.90
23869;DHT22;12115;47.128;15.422;2023-02-19T09:01:07;10.70;99.90
23869;DHT22;12115;47.128;15.422;2023-02-19T09:03:35;13.30;99.90
23869;DHT22;12115;47.128;15.422;2023-02-19T09:06:03;16.30;99.90
23869;DHT22;12115;47.128;15.422;2023-02-19T09:08:30;17.80;95.00
23869;DHT22;12115;47.128;15.422;2023-02-19T09:11:01;19.80;90.90
23869;DHT22;12115;47.128;15.422;2023-02-19T09:13:29;21.60;81.60
23869;DHT22;12115;47.128;15.422;2023-02-19T09:15:56;23.10;73.80
23869;DHT22;12115;47.128;15.422;2023-02-19T09:18:25;24.30;69.40
23869;DHT22;12115;47.128;15.422;2023-02-19T09:20:52;25.30;61.90
23869;DHT22;12115;47.128;15.422;2023-02-19T09:23:19;25.60;58.20
23869;DHT22;12115;47.128;15.422;2023-02-19T09:25:46;25.60;57.90
23869;DHT22;12115;47.128;15.422;2023-02-19T09:28:13;26.20;55.20
23869;DHT22;12115;47.128;15.422;2023-02-19T09:30:42;26.50;53.30
23869;DHT22;12115;47.128;15.422;2023-02-19T09:33:10;27.40;53.80
23869;DHT22;12115;47.128;15.422;2023-02-19T09:35:38;24.80;52.00
23869;DHT22;12115;47.128;15.422;2023-02-19T09:38:05;25.50;52.90
23869;DHT22;12115;47.128;15.422;2023-02-19T09:40:34;27.30;50.50
23869;DHT22;12115;47.128;15.422;2023-02-19T09:43:01;28.60;48.10
23869;DHT22;12115;47.128;15.422;2023-02-19T09:45:31;28.50;47.50
23869;DHT22;12115;47.128;15.422;2023-02-19T09:48:00;27.20;47.90
23869;DHT22;12115;47.128;15.422;2023-02-19T09:50:36;27.80;48.60
23869;DHT22;12115;47.128;15.422;2023-02-19T09:53:04;27.70;46.70
23869;DHT22;12115;47.128;15.422;2023-02-19T09:55:38;27.00;46.30
23869;DHT22;12115;47.128;15.422;2023-02-19T09:58:07;27.80;48.10
23869;DHT22;12115;47.128;15.422;2023-02-19T10:00:41;28.10;46.80
23869;DHT22;12115;47.128;15.422;2023-02-19T10:03:10;28.40;47.80
23869;DHT22;12115;47.128;15.422;2023-02-19T10:05:38;27.90;46.70
23869;DHT22;12115;47.128;15.422;2023-02-19T10:08:08;27.00;45.80
23869;DHT22;12115;47.128;15.422;2023-02-19T10:10:39;28.40;44.30
23869;DHT22;12115;47.128;15.422;2023-02-19T10:13:13;28.50;45.80
23869;DHT22;12115;47.128;15.422;2023-02-19T10:18:23;29.00;42.80
23869;DHT22;12115;47.128;15.422;2023-02-19T10:20:52;27.50;45.30
23869;DHT22;12115;47.128;15.422;2023-02-19T10:23:20;28.60;44.00
23869;DHT22;12115;47.128;15.422;2023-02-19T10:25:48;26.00;45.30
23869;DHT22;12115;47.128;15.422;2023-02-19T10:28:17;26.50;45.70
23869;DHT22;12115;47.128;15.422;2023-02-19T10:30:47;26.30;47.00
23869;DHT22;12115;47.128;15.422;2023-02-19T10:33:15;24.20;49.00
23869;DHT22;12115;47.128;15.422;2023-02-19T10:35:53;24.50;50.50
23869;DHT22;12115;47.128;15.422;2023-02-19T10:38:27;25.50;46.40
23869;DHT22;12115;47.128;15.422;2023-02-19T10:41:05;23.90;47.80
23869;DHT22;12115;47.128;15.422;2023-02-19T10:43:35;26.00;49.20
23869;DHT22;12115;47.128;15.422;2023-02-19T10:46:12;29.00;44.30
23869;DHT22;12115;47.128;15.422;2023-02-19T10:51:58;28.90;41.60
23869;DHT22;12115;47.128;15.422;2023-02-19T10:54:31;27.20;41.50
23869;DHT22;12115;47.128;15.422;2023-02-19T11:02:33;27.90;43.70
23869;DHT22;12115;47.128;15.422;2023-02-19T11:07:32;28.60;39.70
23869;DHT22;12115;47.128;15.422;2023-02-19T11:09:59;24.60;42.60
23869;DHT22;12115;47.128;15.422;2023-02-19T11:12:28;27.60;39.40
23869;DHT22;12115;47.128;15.422;2023-02-19T11:14:55;26.10;40.00
23869;DHT22;12115;47.128;15.422;2023-02-19T11:17:25;24.10;42.90
23869;DHT22;12115;47.128;15.422;2023-02-19T11:19:53;24.10;42.90
23869;DHT22;12115;47.128;15.422;2023-02-19T11:22:32;22.50;45.90
23869;DHT22;12115;47.128;15.422;2023-02-19T11:25:04;21.80;47.40
23869;DHT22;12115;47.128;15.422;2023-02-19T11:27:32;21.40;47.80
23869;DHT22;12115;47.128;15.422;2023-02-19T11:32:47;20.60;49.40
23869;DHT22;12115;47.128;15.422;2023-02-19T11:35:23;20.80;49.90
23869;DHT22;12115;47.128;15.422;2023-02-19T11:37:55;20.70;49.50
23869;DHT22;12115;47.128;15.422;2023-02-19T11:45:54;20.70;50.00
23869;DHT22;12115;47.128;15.422;2023-02-19T11:53:33;20.30;49.70
23869;DHT22;12115;47.128;15.422;2023-02-19T11:58:50;20.00;48.90
23869;DHT22;12115;47.128;15.422;2023-02-19T12:04:19;19.80;49.60
23869;DHT22;12115;47.128;15.422;2023-02-19T12:12:36;19.90;50.60
23869;DHT22;12115;47.128;15.422;2023-02-19T12:36:05;18.80;50.80
23869;DHT22;12115;47.128;15.422;2023-02-19T12:38:43;18.70;50.80
23869;DHT22;12115;47.128;15.422;2023-02-19T12:43:57;18.40;53.80
23869;DHT22;12115;47.128;15.422;2023-02-19T12:46:34;18.00;55.10
23869;DHT22;12115;47.128;15.422;2023-02-19T12:49:14;17.90;55.10
23869;DHT22;12115;47.128;15.422;2023-02-19T12:57:02;17.90;55.90
23869;DHT22;12115;47.128;15.422;2023-02-19T12:59:32;17.30;56.50
23869;DHT22;12115;47.128;15.422;2023-02-19T13:02:18;17.10;57.50
23869;DHT22;12115;47.128;15.422;2023-02-19T13:04:50;17.10;58.10
23869;DHT22;12115;47.128;15.422;2023-02-19T13:07:27;16.90;59.30
23869;DHT22;12115;47.128;15.422;2023-02-19T13:09:59;16.90;59.20
23869;DHT22;12115;47.128;15.422;2023-02-19T13:12:32;16.50;60.00
23869;DHT22;12115;47.128;15.422;2023-02-19T13:15:03;16.40;60.90
23869;DHT22;12115;47.128;15.422;2023-02-19T13:20:12;16.30;61.30
23869;DHT22;12115;47.128;15.422;2023-02-19T13:25:40;16.30;61.50
23869;DHT22;12115;47.128;15.422;2023-02-19T13:31:10;16.00;63.00
23869;DHT22;12115;47.128;15.422;2023-02-19T13:34:03;16.00;62.30
23869;DHT22;12115;47.128;15.422;2023-02-19T13:36:33;15.80;63.20
23869;DHT22;12115;47.128;15.422;2023-02-19T13:39:05;15.80;62.20
23869;DHT22;12115;47.128;15.422;2023-02-19T13:41:35;15.70;62.50
23869;DHT22;12115;47.128;15.422;2023-02-19T13:44:18;15.80;62.60
23869;DHT22;12115;47.128;15.422;2023-02-19T13:46:49;15.70;63.10
23869;DHT22;12115;47.128;15.422;2023-02-19T13:51:54;15.70;63.40
23869;DHT22;12115;47.128;15.422;2023-02-19T13:54:24;15.70;63.50
23869;DHT22;12115;47.128;15.422;2023-02-19T13:59:38;15.50;64.20
23869;DHT22;12115;47.128;15.422;2023-02-19T14:02:09;15.50;64.10
23869;DHT22;12115;47.128;15.422;2023-02-19T14:14:47;15.20;65.10
23869;DHT22;12115;47.128;15.422;2023-02-19T14:19:48;15.20;64.70
23869;DHT22;12115;47.128;15.422;2023-02-19T14:25:04;15.00;65.60
23869;DHT22;12115;47.128;15.422;2023-02-19T14:27:34;15.10;65.40
23869;DHT22;12115;47.128;15.422;2023-02-19T14:30:02;15.00;65.40
23869;DHT22;12115;47.128;15.422;2023-02-19T14:32:31;15.00;65.00
23869;DHT22;12115;47.128;15.422;2023-02-19T14:34:58;15.00;64.90
23869;DHT22;12115;47.128;15.422;2023-02-19T14:37:27;15.00;65.10
23869;DHT22;12115;47.128;15.422;2023-02-19T14:39:55;14.90;65.70
23869;DHT22;12115;47.128;15.422;2023-02-19T14:42:27;14.90;65.50
23869;DHT22;12115;47.128;15.422;2023-02-19T14:45:00;14.80;65.20
23869;DHT22;12115;47.128;15.422;2023-02-19T14:47:29;14.90;65.70
23869;DHT22;12115;47.128;15.422;2023-02-19T14:50:34;14.80;65.60
23869;DHT22;12115;47.128;15.422;2023-02-19T14:52:58;14.70;66.00
23869;DHT22;12115;47.128;15.422;2023-02-19T14:57:55;14.60;66.20
23869;DHT22;12115;47.128;15.422;2023-02-19T15:00:26;14.50;66.00
23869;DHT22;12115;47.128;15.422;2023-02-19T15:02:54;14.50;66.00
23869;DHT22;12115;47.128;15.422;2023-02-19T15:07:53;14.50;65.70
23869;DHT22;12115;47.128;15.422;2023-02-19T15:10:21;14.50;65.70
23869;DHT22;12115;47.128;15.422;2023-02-19T15:12:53;14.50;65.70
23869;DHT22;12115;47.128;15.422;2023-02-19T15:15:29;14.50;66.00
23869;DHT22;12115;47.128;15.422;2023-02-19T15:18:02;14.50;65.60
23869;DHT22;12115;47.128;15.422;2023-02-19T15:20:33;14.50;65.40
23869;DHT22;12115;47.128;15.422;2023-02-19T15:23:03;14.30;65.80
23869;DHT22;12115;47.128;15.422;2023-02-19T15:25:32;14.30;66.00
23869;DHT22;12115;47.128;15.422;2023-02-19T15:31:35;14.20;66.00
23869;DHT22;12115;47.128;15.422;2023-02-19T15:33:38;14.20;66.00
23869;DHT22;12115;47.128;15.422;2023-02-19T15:36:07;14.10;66.20
23869;DHT22;12115;47.128;15.422;2023-02-19T15:38:36;14.10;66.30
23869;DHT22;12115;47.128;15.422;2023-02-19T15:41:04;13.90;66.80
23869;DHT22;12115;47.128;15.422;2023-02-19T15:46:05;13.80;66.80
23869;DHT22;12115;47.128;15.422;2023-02-19T15:48:38;13.70;66.90
23869;DHT22;12115;47.128;15.422;2023-02-19T15:51:09;13.60;67.60
23869;DHT22;12115;47.128;15.422;2023-02-19T15:53:45;13.60;67.80
23869;DHT22;12115;47.128;15.422;2023-02-19T15:56:16;13.50;68.40
23869;DHT22;12115;47.128;15.422;2023-02-19T15:58:49;13.40;68.40
23869;DHT22;12115;47.128;15.422;2023-02-19T16:03:46;13.30;68.60
23869;DHT22;12115;47.128;15.422;2023-02-19T16:06:15;13.30;68.50
23869;DHT22;12115;47.128;15.422;2023-02-19T16:09:05;13.30;68.50
23869;DHT22;12115;47.128;15.422;2023-02-19T16:22:12;13.00;68.60
23869;DHT22;12115;47.128;15.422;2023-02-19T16:24:44;13.00;68.40
23869;DHT22;12115;47.128;15.422;2023-02-19T16:27:37;12.90;68.30
23869;DHT22;12115;47.128;15.422;2023-02-19T16:32:46;12.70;68.90
23869;DHT22;12115;47.128;15.422;2023-02-19T16:35:36;12.70;69.40
23869;DHT22;12115;47.128;15.422;2023-02-19T16:38:13;12.60;69.70
23869;DHT22;12115;47.128;15.422;2023-02-19T16:45:43;12.60;70.00
23869;DHT22;12115;47.128;15.422;2023-02-19T16:48:12;12.50;69.90
23869;DHT22;12115;47.128;15.422;2023-02-19T16:50:40;12.40;70.40
23869;DHT22;12115;47.128;15.422;2023-02-19T16:53:19;12.50;70.30
23869;DHT22;12115;47.128;15.422;2023-02-19T16:55:47;12.40;70.30
23869;DHT22;12115;47.128;15.422;2023-02-19T16:58:16;12.40;70.80
23869;DHT22;12115;47.128;15.422;2023-02-19T17:00:45;12.30;70.90
23869;DHT22;12115;47.128;15.422;2023-02-19T17:03:14;12.20;71.30
23869;DHT22;12115;47.128;15.422;2023-02-19T17:05:42;12.20;70.90
23869;DHT22;12115;47.128;15.422;2023-02-19T17:08:22;12.20;71.20
23869;DHT22;12115;47.128;15.422;2023-02-19T17:10:51;12.20;71.20
23869;DHT22;12115;47.128;15.422;2023-02-19T17:13:22;12.20;71.20
23869;DHT22;12115;47.128;15.422;2023-02-19T17:15:56;12.20;71.70
23869;DHT22;12115;47.128;15.422;2023-02-19T17:18:34;12.10;71.70
23869;DHT22;12115;47.128;15.422;2023-02-19T17:21:11;12.10;71.00
23869;DHT22;12115;47.128;15.422;2023-02-19T17:23:40;12.10;71.30
23869;DHT22;12115;47.128;15.422;2023-02-19T17:26:11;12.10;71.10
23869;DHT22;12115;47.128;15.422;2023-02-19T17:28:40;12.10;71.10
23869;DHT22;12115;47.128;15.422;2023-02-19T17:31:10;12.10;71.00
23869;DHT22;12115;47.128;15.422;2023-02-19T17:33:40;12.00;71.00
23869;DHT22;12115;47.128;15.422;2023-02-19T17:39:09;12.00;71.10
23869;DHT22;12115;47.128;15.422;2023-02-19T17:41:41;11.90;71.30
23869;DHT22;12115;47.128;15.422;2023-02-19T17:44:10;11.90;71.30
23869;DHT22;12115;47.128;15.422;2023-02-19T17:46:38;11.90;71.60
23869;DHT22;12115;47.128;15.422;2023-02-19T17:49:06;11.90;71.60
23869;DHT22;12115;47.128;15.422;2023-02-19T17:51:34;11.90;71.90
23869;DHT22;12115;47.128;15.422;2023-02-19T17:54:01;11.80;71.90
23869;DHT22;12115;47.128;15.422;2023-02-19T17:56:34;11.80;72.40
23869;DHT22;12115;47.128;15.422;2023-02-19T17:59:02;11.70;72.20
23869;DHT22;12115;47.128;15.422;2023-02-19T18:01:31;11.70;72.00
23869;DHT22;12115;47.128;15.422;2023-02-19T18:04:00;11.70;72.20
23869;DHT22;12115;47.128;15.422;2023-02-19T18:06:28;11.70;72.40
23869;DHT22;12115;47.128;15.422;2023-02-19T18:08:55;11.60;72.70
23869;DHT22;12115;47.128;15.422;2023-02-19T18:11:24;11.70;72.80
23869;DHT22;12115;47.128;15.422;2023-02-19T18:13:52;11.60;73.10
23869;DHT22;12115;47.128;15.422;2023-02-19T18:16:20;11.60;72.90
23869;DHT22;12115;47.128;15.422;2023-02-19T18:18:49;11.60;73.00
23869;DHT22;12115;47.128;15.422;2023-02-19T18:21:18;11.50;73.40
23869;DHT22;12115;47.128;15.422;2023-02-19T18:23:46;11.50;73.10
23869;DHT22;12115;47.128;15.422;2023-02-19T18:26:17;11.60;73.00
23869;DHT22;12115;47.128;15.422;2023-02-19T18:28:45;11.60;72.90
23869;DHT22;12115;47.128;15.422;2023-02-19T18:31:14;11.60;72.70